Time;durP1;ratioP1;P1;durP2;ratioP2;P2;SDS_P1;SDS_P2;PMS_P1;PMS_P2;Temp;Humidity;BMP_temperature;BMP_pressure;BME280_temperature;BME280_humidity;BME280_pressure;Samples;Min_cycle;Max_cycle;Signal;HPM_P1;HPM_P2
2021/05/19 00:02:03;;;;;;;2.83;0.70;;;12.60;70.70;;;;;;5055857;28;20044;-74
2021/05/19 00:04:29;;;;;;;1.17;0.60;;;12.60;70.90;;;;;;5071371;28;20033;-75
2021/05/19 00:06:55;;;;;;;1.93;0.70;;;12.60;70.90;;;;;;5067073;28;20017;-76
2021/05/19 00:09:21;;;;;;;2.67;0.80;;;12.60;70.50;;;;;;5051076;28;20080;-75
2021/05/19 00:11:48;;;;;;;2.60;1.00;;;12.60;70.40;;;;;;5054241;28;20043;-75
2021/05/19 00:14:16;;;;;;;2.60;1.03;;;12.60;70.50;;;;;;5057778;28;20043;-75
2021/05/19 00:16:43;;;;;;;4.40;1.13;;;12.60;70.70;;;;;;5073228;28;20028;-75
2021/05/19 00:19:09;;;;;;;1.80;0.70;;;12.50;70.70;;;;;;5050628;28;20449;-76
2021/05/19 00:21:35;;;;;;;2.57;1.07;;;12.50;70.80;;;;;;5065214;28;20049;-76
2021/05/19 00:24:02;;;;;;;1.50;1.10;;;12.50;70.70;;;;;;5052002;28;20215;-75
2021/05/19 00:26:27;;;;;;;3.47;1.63;;;12.50;70.80;;;;;;5075854;28;20085;-77
2021/05/19 00:28:57;;;;;;;3.93;1.87;;;12.50;70.90;;;;;;5067878;28;20016;-75
2021/05/19 00:31:24;;;;;;;3.23;1.70;;;12.50;71.00;;;;;;5073095;28;20036;-76
2021/05/19 00:33:50;;;;;;;3.60;1.70;;;12.50;71.10;;;;;;5071097;28;20154;-75
2021/05/19 00:36:16;;;;;;;2.30;1.40;;;12.40;71.10;;;;;;5072284;28;20040;-75
2021/05/19 00:38:42;;;;;;;3.87;1.30;;;12.50;71.20;;;;;;5049849;28;20024;-75
2021/05/19 00:41:09;;;;;;;4.07;1.37;;;12.50;71.40;;;;;;5063815;28;20040;-76
2021/05/19 00:43:36;;;;;;;1.93;0.93;;;12.50;71.40;;;;;;5045925;28;20028;-76
2021/05/19 00:46:03;;;;;;;1.37;0.70;;;12.50;71.40;;;;;;5072696;28;20027;-76
2021/05/19 00:48:28;;;;;;;1.73;0.70;;;12.50;71.10;;;;;;5055288;28;20078;-76
2021/05/19 00:50:54;;;;;;;2.80;1.33;;;12.40;71.10;;;;;;5057197;28;20101;-76
2021/05/19 00:53:20;;;;;;;1.17;0.60;;;12.50;71.20;;;;;;5053717;28;20039;-75
2021/05/19 00:55:46;;;;;;;1.93;0.70;;;12.50;71.10;;;;;;5068272;28;20070;-75
2021/05/19 00:58:13;;;;;;;3.40;0.90;;;12.50;70.90;;;;;;5066390;28;20025;-75
2021/05/19 01:00:39;;;;;;;0.87;0.63;;;12.50;70.90;;;;;;5069528;28;20017;-76
2021/05/19 01:03:05;;;;;;;1.30;0.80;;;12.50;70.70;;;;;;5072217;28;20017;-76
2021/05/19 01:10:50;;;;;;;4.40;0.47;;;12.40;70.30;;;;;;5066125;28;20048;-74
2021/05/19 01:13:16;;;;;;;1.10;0.60;;;12.40;70.30;;;;;;5053657;28;20032;-75
2021/05/19 01:15:43;;;;;;;1.33;0.63;;;12.40;70.30;;;;;;5079275;28;20024;-74
2021/05/19 01:18:08;;;;;;;1.67;0.87;;;12.40;70.40;;;;;;5052533;28;20435;-75
2021/05/19 01:20:36;;;;;;;1.23;0.60;;;12.30;70.30;;;;;;5062212;28;20025;-75
2021/05/19 01:23:03;;;;;;;0.93;0.60;;;12.30;70.30;;;;;;5042068;28;20017;-75
2021/05/19 01:25:29;;;;;;;1.63;0.77;;;12.30;70.30;;;;;;5062566;28;20069;-75
2021/05/19 01:27:58;;;;;;;0.90;0.60;;;12.30;70.30;;;;;;5071513;28;20060;-75
2021/05/19 01:30:24;;;;;;;1.13;0.50;;;12.30;70.30;;;;;;5045476;28;20029;-75
2021/05/19 01:32:50;;;;;;;1.10;0.60;;;12.30;70.00;;;;;;5053467;28;20924;-75
2021/05/19 01:35:16;;;;;;;1.10;0.50;;;12.30;70.00;;;;;;5065172;28;20150;-76
2021/05/19 01:37:44;;;;;;;2.97;0.70;;;12.30;69.90;;;;;;5045532;28;20389;-75
2021/05/19 01:40:13;;;;;;;1.20;0.50;;;12.20;69.80;;;;;;5053364;28;20504;-75
2021/05/19 01:42:40;;;;;;;0.80;0.30;;;12.30;69.90;;;;;;5067288;28;20029;-74
2021/05/19 01:45:08;;;;;;;1.83;0.60;;;12.40;69.80;;;;;;5064942;28;20091;-74
2021/05/19 01:47:49;;;;;;;1.27;0.70;;;12.50;69.50;;;;;;5053847;28;20051;-75
2021/05/19 01:50:20;;;;;;;3.33;0.50;;;12.50;69.00;;;;;;5061030;28;20047;-75
2021/05/19 01:52:47;;;;;;;1.73;0.70;;;12.50;69.50;;;;;;5060934;28;20111;-75
2021/05/19 01:55:15;;;;;;;1.77;0.60;;;12.60;69.50;;;;;;5061901;28;20040;-76
2021/05/19 01:57:46;;;;;;;2.43;0.70;;;12.50;69.60;;;;;;5060709;28;20104;-75
2021/05/19 02:00:13;;;;;;;1.60;0.77;;;12.50;69.70;;;;;;5053595;28;20028;-76
2021/05/19 02:02:40;;;;;;;0.87;0.57;;;12.50;69.70;;;;;;5042377;28;20021;-75
2021/05/19 02:05:09;;;;;;;2.00;0.70;;;12.40;69.80;;;;;;5068560;28;20055;-75
2021/05/19 02:07:38;;;;;;;0.83;0.50;;;12.40;70.10;;;;;;5053560;28;20017;-75
2021/05/19 02:10:09;;;;;;;2.10;0.67;;;12.40;70.00;;;;;;5070208;28;20414;-75
2021/05/19 02:12:35;;;;;;;2.10;0.70;;;12.40;69.90;;;;;;5071368;28;20033;-74
2021/05/19 02:15:02;;;;;;;0.87;0.70;;;12.50;70.20;;;;;;5066647;28;20417;-76
2021/05/19 02:17:28;;;;;;;2.10;0.70;;;12.50;70.00;;;;;;5068240;28;20404;-75
2021/05/19 02:19:54;;;;;;;3.47;0.70;;;12.50;70.10;;;;;;5040750;28;20016;-75
2021/05/19 02:22:21;;;;;;;1.63;0.63;;;12.50;70.20;;;;;;5053562;28;20025;-81
2021/05/19 02:24:47;;;;;;;2.10;0.80;;;12.50;70.00;;;;;;5053805;28;20029;-81
2021/05/19 02:27:13;;;;;;;1.80;0.57;;;12.30;70.10;;;;;;5061701;28;20046;-81
2021/05/19 02:29:39;;;;;;;1.47;0.57;;;12.30;70.50;;;;;;5051657;28;20028;-81
2021/05/19 02:32:06;;;;;;;2.10;0.60;;;12.20;70.50;;;;;;5048552;28;20428;-81
2021/05/19 02:34:32;;;;;;;1.47;0.60;;;12.30;70.60;;;;;;5076386;28;20082;-81
2021/05/19 02:36:58;;;;;;;5.23;0.70;;;12.20;70.50;;;;;;5071649;28;20020;-81
2021/05/19 02:39:23;;;;;;;2.97;0.63;;;12.10;70.50;;;;;;5062382;28;20032;-80
2021/05/19 02:41:49;;;;;;;1.70;0.80;;;12.10;70.70;;;;;;5071666;28;20059;-81
2021/05/19 02:44:15;;;;;;;1.40;0.60;;;12.10;70.70;;;;;;5050612;28;20021;-81
2021/05/19 02:46:41;;;;;;;2.53;0.70;;;12.00;70.80;;;;;;5065955;28;20074;-81
2021/05/19 02:49:06;;;;;;;0.87;0.57;;;11.90;71.00;;;;;;5041260;28;20056;-81
2021/05/19 02:51:37;;;;;;;1.47;0.60;;;11.90;71.20;;;;;;5066244;28;20075;-81
2021/05/19 02:54:04;;;;;;;1.03;0.43;;;11.90;71.20;;;;;;5069475;28;20311;-81
2021/05/19 02:56:30;;;;;;;2.57;1.13;;;11.90;71.00;;;;;;5079232;28;20475;-81
2021/05/19 02:58:56;;;;;;;1.73;0.93;;;11.80;71.20;;;;;;5070375;28;20028;-81
2021/05/19 03:01:22;;;;;;;2.23;0.80;;;11.80;71.20;;;;;;5054602;28;20028;-81
2021/05/19 03:03:47;;;;;;;2.77;0.97;;;11.70;71.30;;;;;;5056407;28;20473;-81
2021/05/19 03:06:13;;;;;;;4.07;1.50;;;11.80;71.50;;;;;;5062274;28;20397;-81
2021/05/19 03:08:39;;;;;;;2.77;0.80;;;11.80;71.50;;;;;;5055616;28;20033;-81
2021/05/19 03:11:06;;;;;;;2.43;0.80;;;11.80;71.40;;;;;;5074404;28;20036;-81
2021/05/19 03:13:32;;;;;;;4.23;1.00;;;11.80;71.00;;;;;;5051107;28;20108;-81
2021/05/19 03:15:58;;;;;;;3.17;1.10;;;11.70;71.60;;;;;;5071435;28;20025;-80
2021/05/19 03:18:24;;;;;;;1.27;0.80;;;11.70;71.70;;;;;;5056547;28;20027;-81
2021/05/19 03:20:50;;;;;;;2.13;0.90;;;11.70;71.90;;;;;;5044305;28;20100;-81
2021/05/19 03:23:15;;;;;;;0.93;0.60;;;11.70;71.80;;;;;;5055583;28;20024;-81
2021/05/19 03:25:41;;;;;;;2.73;0.70;;;11.70;71.70;;;;;;5063158;28;20389;-81
2021/05/19 03:28:07;;;;;;;2.37;0.70;;;11.70;71.80;;;;;;5055284;28;20025;-81
2021/05/19 03:30:33;;;;;;;1.40;0.70;;;11.80;71.70;;;;;;5074756;28;20055;-81
2021/05/19 03:32:59;;;;;;;3.57;1.00;;;11.70;71.70;;;;;;5053174;28;20092;-81
2021/05/19 03:35:25;;;;;;;2.20;0.90;;;11.70;71.80;;;;;;5063337;28;20052;-82
2021/05/19 03:37:53;;;;;;;3.37;1.00;;;11.80;71.90;;;;;;5074271;28;20465;-81
2021/05/19 03:40:19;;;;;;;4.77;1.00;;;11.80;71.90;;;;;;5066253;28;20540;-81
2021/05/19 03:42:44;;;;;;;4.77;0.77;;;11.80;72.10;;;;;;5052875;28;20059;-81
2021/05/19 03:45:14;;;;;;;1.10;0.87;;;11.80;72.20;;;;;;5040466;28;20068;-81
2021/05/19 03:47:41;;;;;;;1.87;0.90;;;11.70;71.90;;;;;;5069671;28;20553;-81
2021/05/19 03:50:08;;;;;;;4.03;0.83;;;11.70;72.00;;;;;;5074341;28;20085;-81
2021/05/19 03:52:35;;;;;;;5.00;1.07;;;11.70;72.00;;;;;;5072696;28;20054;-81
2021/05/19 03:55:00;;;;;;;1.07;0.80;;;11.70;72.10;;;;;;5050155;28;20028;-80
2021/05/19 03:57:27;;;;;;;2.50;0.80;;;11.70;72.10;;;;;;5052096;28;20036;-80
2021/05/19 03:59:52;;;;;;;2.23;0.80;;;11.70;72.10;;;;;;5070054;28;20021;-81
2021/05/19 04:02:18;;;;;;;4.27;1.37;;;11.80;72.10;;;;;;5072895;28;20017;-81
2021/05/19 04:04:44;;;;;;;3.10;0.90;;;11.80;72.30;;;;;;5071053;28;20032;-82
2021/05/19 04:07:11;;;;;;;3.93;1.73;;;11.80;72.20;;;;;;5074406;28;20055;-82
2021/05/19 04:09:37;;;;;;;2.13;1.63;;;11.80;72.30;;;;;;5054859;28;20497;-81
2021/05/19 04:12:03;;;;;;;3.30;1.67;;;11.80;72.30;;;;;;5073261;28;20052;-82
2021/05/19 04:14:44;;;;;;;3.60;1.90;;;11.80;72.50;;;;;;5067821;28;20032;-82
2021/05/19 04:17:10;;;;;;;3.03;1.40;;;11.90;72.60;;;;;;5056304;28;20035;-82
2021/05/19 04:19:35;;;;;;;2.80;1.70;;;11.90;72.50;;;;;;5073712;28;20032;-81
2021/05/19 04:22:01;;;;;;;4.43;1.60;;;11.80;72.60;;;;;;5073244;28;20020;-82
2021/05/19 04:24:27;;;;;;;3.97;1.70;;;11.80;72.80;;;;;;5048930;28;20120;-82
2021/05/19 04:26:53;;;;;;;3.57;1.70;;;11.80;72.80;;;;;;5052934;28;20127;-82
2021/05/19 04:29:19;;;;;;;3.23;2.40;;;11.90;72.80;;;;;;5067766;28;20040;-81
2021/05/19 04:31:44;;;;;;;5.47;1.90;;;11.90;72.70;;;;;;5066796;28;20115;-81
2021/05/19 04:34:10;;;;;;;4.97;1.80;;;11.90;72.50;;;;;;5054516;28;20033;-82
2021/05/19 04:36:36;;;;;;;2.03;1.67;;;11.90;72.60;;;;;;5055094;28;20114;-82
2021/05/19 04:39:03;;;;;;;2.50;1.60;;;11.90;72.70;;;;;;5072577;28;20025;-82
2021/05/19 04:41:29;;;;;;;3.53;1.90;;;11.90;72.50;;;;;;5071225;28;20037;-81
2021/05/19 04:43:54;;;;;;;2.67;1.60;;;11.90;72.30;;;;;;5066980;28;20020;-81
2021/05/19 04:46:20;;;;;;;3.07;1.67;;;12.00;72.30;;;;;;5046410;28;20094;-81
2021/05/19 04:48:46;;;;;;;3.40;1.40;;;12.00;72.20;;;;;;5042263;28;20032;-82
2021/05/19 04:51:12;;;;;;;3.13;1.40;;;11.90;71.80;;;;;;5054101;28;20062;-82
2021/05/19 04:53:37;;;;;;;1.77;1.23;;;11.90;71.50;;;;;;5054244;28;20153;-82
2021/05/19 04:56:03;;;;;;;2.37;1.60;;;11.90;71.20;;;;;;5052792;28;20381;-82
2021/05/19 04:58:29;;;;;;;2.33;1.23;;;12.00;71.20;;;;;;5050586;28;20477;-81
2021/05/19 05:00:55;;;;;;;3.23;1.33;;;11.90;71.10;;;;;;5067798;28;20069;-81
2021/05/19 05:03:21;;;;;;;1.97;1.03;;;12.00;71.10;;;;;;5068260;28;20396;-82
2021/05/19 05:05:47;;;;;;;3.37;1.10;;;12.00;71.00;;;;;;5053921;28;20119;-82
2021/05/19 05:08:13;;;;;;;2.40;1.60;;;12.00;70.80;;;;;;5056300;28;20078;-81
2021/05/19 05:10:38;;;;;;;1.83;0.77;;;12.00;70.80;;;;;;5071492;28;20052;-80
2021/05/19 05:13:04;;;;;;;4.07;0.90;;;12.00;70.60;;;;;;5072407;28;20066;-81
2021/05/19 05:15:30;;;;;;;1.40;0.70;;;12.00;70.60;;;;;;5052186;28;20039;-81
2021/05/19 05:17:56;;;;;;;1.30;0.77;;;11.90;70.50;;;;;;5068716;28;20029;-82
2021/05/19 05:20:24;;;;;;;2.33;0.60;;;12.00;70.70;;;;;;5048035;28;20047;-81
2021/05/19 05:22:50;;;;;;;1.17;0.53;;;12.00;70.50;;;;;;5037545;28;20021;-81
2021/05/19 05:25:18;;;;;;;3.00;1.10;;;12.00;70.30;;;;;;5047788;28;20071;-81
2021/05/19 05:27:47;;;;;;;1.50;0.50;;;12.10;70.20;;;;;;5048657;28;20523;-82
2021/05/19 05:30:13;;;;;;;3.63;0.60;;;12.00;69.80;;;;;;5050762;28;20039;-82
2021/05/19 05:32:39;;;;;;;3.27;0.73;;;12.10;69.70;;;;;;5054079;28;20708;-81
2021/05/19 05:35:06;;;;;;;2.33;0.90;;;12.00;69.80;;;;;;5052289;28;20063;-82
2021/05/19 05:37:31;;;;;;;3.97;0.77;;;12.10;69.90;;;;;;5054619;28;20070;-80
2021/05/19 05:39:57;;;;;;;2.67;0.60;;;12.10;69.80;;;;;;5066790;28;20219;-82
2021/05/19 05:42:25;;;;;;;1.83;0.80;;;12.10;69.80;;;;;;5072384;28;20370;-81
2021/05/19 05:44:51;;;;;;;2.40;0.60;;;12.10;69.70;;;;;;5044396;28;20136;-80
2021/05/19 05:47:42;;;;;;;2.63;1.30;;;12.10;69.60;;;;;;5048650;28;20064;-82
2021/05/19 05:50:16;;;;;;;2.07;1.23;;;12.00;69.60;;;;;;5074204;28;20025;-82
2021/05/19 05:52:42;;;;;;;3.60;1.60;;;12.00;69.80;;;;;;5050432;28;20059;-81
2021/05/19 05:55:09;;;;;;;4.23;0.83;;;12.00;69.80;;;;;;5057070;28;20036;-81
2021/05/19 05:57:35;;;;;;;3.80;0.70;;;12.00;69.90;;;;;;5045087;28;20607;-80
2021/05/19 06:00:00;;;;;;;5.03;0.60;;;12.00;69.60;;;;;;5042904;28;20033;-82
2021/05/19 06:02:26;;;;;;;1.63;0.60;;;12.00;69.80;;;;;;5053580;28;20033;-81
2021/05/19 06:04:52;;;;;;;0.60;0.40;;;12.00;69.90;;;;;;5054300;28;20032;-81
2021/05/19 06:07:17;;;;;;;1.03;0.47;;;11.90;69.70;;;;;;5066843;28;20029;-81
2021/05/19 06:09:50;;;;;;;2.77;0.30;;;11.90;69.60;;;;;;5066664;28;20032;-81
2021/05/19 06:12:16;;;;;;;1.60;0.50;;;11.80;69.60;;;;;;5048315;28;20478;-82
2021/05/19 06:14:43;;;;;;;2.17;0.50;;;11.80;69.30;;;;;;5039838;28;20037;-80
2021/05/19 06:17:11;;;;;;;1.57;0.57;;;11.80;69.20;;;;;;5044045;28;20052;-81
2021/05/19 06:19:37;;;;;;;1.47;0.40;;;11.90;69.30;;;;;;5052700;28;20111;-82
2021/05/19 06:22:02;;;;;;;0.73;0.40;;;11.90;69.30;;;;;;5053989;28;20110;-81
2021/05/19 06:24:28;;;;;;;2.00;0.40;;;11.90;69.20;;;;;;5048042;28;20025;-82
2021/05/19 06:26:54;;;;;;;1.47;0.43;;;12.00;69.20;;;;;;5067239;28;20027;-81
2021/05/19 06:29:21;;;;;;;0.63;0.30;;;12.00;69.20;;;;;;5068984;28;20028;-82
2021/05/19 06:31:47;;;;;;;0.90;0.50;;;12.00;69.00;;;;;;5074699;28;20536;-82
2021/05/19 06:34:13;;;;;;;1.80;0.40;;;12.00;69.10;;;;;;5060965;28;20111;-80
2021/05/19 06:36:43;;;;;;;0.73;0.43;;;12.00;69.10;;;;;;5046693;28;20060;-82
2021/05/19 06:39:09;;;;;;;0.87;0.30;;;12.00;68.90;;;;;;5067328;28;20154;-81
2021/05/19 06:41:34;;;;;;;2.63;0.30;;;11.90;68.90;;;;;;5052698;28;21673;-81
2021/05/19 06:44:00;;;;;;;1.53;0.40;;;11.90;68.90;;;;;;5051860;28;20032;-81
2021/05/19 06:46:26;;;;;;;0.43;0.30;;;11.90;68.90;;;;;;5071694;28;20028;-81
2021/05/19 06:48:52;;;;;;;1.90;0.43;;;11.80;68.70;;;;;;5056140;28;20469;-81
2021/05/19 06:51:18;;;;;;;2.00;0.40;;;11.80;69.30;;;;;;5056884;28;20512;-81
2021/05/19 06:53:43;;;;;;;1.90;0.80;;;11.90;69.20;;;;;;5071462;28;20036;-81
2021/05/19 06:56:09;;;;;;;2.17;1.03;;;11.90;69.20;;;;;;5056886;28;20044;-81
2021/05/19 06:58:35;;;;;;;2.90;0.80;;;12.00;69.20;;;;;;5049227;28;20025;-81
2021/05/19 07:01:01;;;;;;;1.27;0.70;;;12.10;69.00;;;;;;5056560;28;20457;-82
2021/05/19 07:03:27;;;;;;;0.87;0.40;;;12.20;69.10;;;;;;5063017;28;20028;-82
2021/05/19 07:05:52;;;;;;;1.90;0.67;;;12.20;68.70;;;;;;5075126;28;20020;-82
2021/05/19 07:08:21;;;;;;;1.23;0.60;;;12.20;68.50;;;;;;5056554;28;20119;-81
2021/05/19 07:10:47;;;;;;;0.93;0.53;;;12.10;68.50;;;;;;5047445;28;20418;-81
2021/05/19 07:13:28;;;;;;;1.60;0.63;;;12.20;68.60;;;;;;5055190;28;20063;-82
2021/05/19 07:15:58;;;;;;;1.17;0.30;;;12.30;68.30;;;;;;5068360;28;20627;-81
2021/05/19 07:18:36;;;;;;;1.60;0.80;;;12.30;68.10;;;;;;5072437;28;20019;-82
2021/05/19 07:21:01;;;;;;;3.17;1.57;;;12.20;68.20;;;;;;5071786;28;20021;-82
2021/05/19 07:23:27;;;;;;;1.77;0.30;;;12.30;68.20;;;;;;5072661;28;20027;-81
2021/05/19 07:25:53;;;;;;;1.23;0.50;;;12.30;67.90;;;;;;5073925;28;20016;-82
2021/05/19 07:28:18;;;;;;;0.60;0.30;;;12.40;67.70;;;;;;5054957;28;20029;-81
2021/05/19 07:30:47;;;;;;;2.13;0.30;;;12.40;67.30;;;;;;5055945;28;20115;-82
2021/05/19 07:33:13;;;;;;;1.73;0.50;;;12.30;67.30;;;;;;5056137;28;20037;-82
2021/05/19 07:35:40;;;;;;;0.40;0.30;;;12.40;67.00;;;;;;5073190;28;20127;-81
2021/05/19 07:38:11;;;;;;;0.83;0.30;;;12.40;66.90;;;;;;5067592;28;20018;-83
2021/05/19 07:40:39;;;;;;;0.80;0.30;;;12.50;66.60;;;;;;5070703;28;20016;-84
2021/05/19 07:43:04;;;;;;;2.57;0.40;;;12.40;66.40;;;;;;5072137;28;20733;-84
2021/05/19 07:45:36;;;;;;;0.77;0.37;;;12.40;66.50;;;;;;5073002;28;20103;-83
2021/05/19 07:48:05;;;;;;;4.15;0.35;;;12.40;66.40;;;;;;5053208;28;20025;-82
2021/05/19 07:50:32;;;;;;;2.87;0.40;;;12.40;66.30;;;;;;5045698;28;20400;-82
2021/05/19 07:52:57;;;;;;;0.50;0.20;;;12.50;66.40;;;;;;5056399;28;20054;-82
2021/05/19 07:55:28;;;;;;;2.43;1.17;;;12.50;66.00;;;;;;5056801;28;20420;-82
2021/05/19 07:58:03;;;;;;;2.27;0.67;;;12.50;65.70;;;;;;5056464;28;20392;-82
2021/05/19 08:02:57;;;;;;;4.10;1.30;;;12.60;65.70;;;;;;5075023;28;20029;-82
2021/05/19 08:05:23;;;;;;;118.77;31.73;;;12.60;65.60;;;;;;5056382;28;20040;-82
2021/05/19 08:07:48;;;;;;;12.63;3.73;;;12.60;65.30;;;;;;5073570;28;20024;-82
2021/05/19 08:10:14;;;;;;;5.87;1.80;;;12.60;65.20;;;;;;5058895;28;20711;-82
2021/05/19 08:12:40;;;;;;;1.70;0.50;;;12.60;65.60;;;;;;5051475;28;20029;-82
2021/05/19 08:15:06;;;;;;;1.83;0.53;;;12.80;65.70;;;;;;5054302;28;20115;-81
2021/05/19 08:17:32;;;;;;;1.77;0.20;;;12.80;65.20;;;;;;5056541;28;20044;-82
2021/05/19 08:19:58;;;;;;;2.00;0.30;;;12.80;64.80;;;;;;5074246;28;20060;-82
2021/05/19 08:22:24;;;;;;;1.27;0.30;;;12.80;64.60;;;;;;5055895;28;20017;-82
2021/05/19 08:24:49;;;;;;;7.97;3.00;;;12.80;64.90;;;;;;5056770;28;20025;-81
2021/05/19 08:27:16;;;;;;;2.10;1.33;;;12.90;65.60;;;;;;5055582;28;20021;-82
2021/05/19 08:29:43;;;;;;;0.80;0.60;;;13.00;65.40;;;;;;5056103;28;20025;-82
2021/05/19 08:32:09;;;;;;;3.27;0.30;;;13.10;65.70;;;;;;5054892;28;20048;-82
2021/05/19 08:34:35;;;;;;;0.57;0.20;;;13.20;65.40;;;;;;5072129;28;20032;-81
2021/05/19 08:37:02;;;;;;;0.43;0.20;;;13.00;64.90;;;;;;5071811;28;20032;-81
2021/05/19 08:39:27;;;;;;;0.47;0.10;;;12.80;64.20;;;;;;5052761;28;20089;-82
2021/05/19 08:41:53;;;;;;;0.57;0.10;;;12.70;64.60;;;;;;5051986;28;20064;-82
2021/05/19 08:44:20;;;;;;;0.60;0.30;;;12.70;64.40;;;;;;5059658;28;20036;-82
2021/05/19 08:46:47;;;;;;;0.50;0.20;;;12.80;64.30;;;;;;5055883;28;20024;-82
2021/05/19 08:49:14;;;;;;;2.40;0.80;;;12.80;64.30;;;;;;5054973;28;20028;-82
2021/05/19 08:51:41;;;;;;;2.03;0.43;;;12.80;63.90;;;;;;5054097;28;20501;-83
2021/05/19 08:54:09;;;;;;;0.70;0.30;;;12.80;64.00;;;;;;5051901;28;20033;-84
2021/05/19 08:56:40;;;;;;;0.77;0.40;;;12.70;63.90;;;;;;5038505;28;20029;-84
2021/05/19 08:59:06;;;;;;;0.60;0.20;;;12.80;64.10;;;;;;5045175;28;20389;-84
2021/05/19 09:01:45;;;;;;;0.87;0.20;;;12.70;63.50;;;;;;5045008;28;20025;-83
2021/05/19 09:04:19;;;;;;;0.27;0.13;;;12.50;63.60;;;;;;5054388;28;20036;-84
2021/05/19 09:06:54;;;;;;;2.97;0.83;;;12.50;64.20;;;;;;5048200;28;20024;-83
2021/05/19 09:09:25;;;;;;;1.60;0.47;;;12.60;64.60;;;;;;5053262;28;20179;-84
2021/05/19 09:11:59;;;;;;;1.03;0.40;;;12.60;64.80;;;;;;5046628;28;20443;-83
2021/05/19 09:14:26;;;;;;;0.60;0.20;;;12.70;64.60;;;;;;5053345;28;20028;-84
2021/05/19 09:16:52;;;;;;;2.27;0.20;;;12.70;64.70;;;;;;5047472;28;20052;-83
2021/05/19 09:19:33;;;;;;;0.50;0.20;;;12.70;64.60;;;;;;5040993;28;20027;-83
2021/05/19 09:22:00;;;;;;;1.10;0.20;;;12.70;64.60;;;;;;5061589;28;20020;-84
2021/05/19 09:24:34;;;;;;;0.47;0.20;;;12.80;64.70;;;;;;5042827;28;20024;-84
2021/05/19 09:27:03;;;;;;;0.20;0.20;;;12.90;64.50;;;;;;5060113;28;20462;-83
2021/05/19 09:29:32;;;;;;;0.17;0.17;;;12.90;64.30;;;;;;5072498;28;20051;-84
2021/05/19 09:32:00;;;;;;;1.17;0.50;;;12.80;64.30;;;;;;5065676;28;20519;-84
2021/05/19 09:34:31;;;;;;;0.53;0.33;;;12.90;64.10;;;;;;5054792;28;20028;-84
2021/05/19 09:37:15;;;;;;;0.30;0.20;;;12.80;64.00;;;;;;5054617;28;20074;-84
2021/05/19 09:40:04;;;;;;;0.37;0.20;;;13.00;64.50;;;;;;5049267;28;20048;-83
2021/05/19 09:42:36;;;;;;;0.73;0.27;;;13.00;64.70;;;;;;5048156;28;20025;-83
2021/05/19 09:45:26;;;;;;;0.82;0.28;;;13.10;64.90;;;;;;5071917;28;20461;-84
2021/05/19 09:47:54;;;;;;;2.23;0.77;;;13.10;65.30;;;;;;5059696;28;20433;-84
2021/05/19 09:50:22;;;;;;;2.50;0.80;;;13.10;65.00;;;;;;5058155;28;20492;-84
2021/05/19 09:53:10;;;;;;;2.73;0.90;;;13.10;65.10;;;;;;5055232;28;20416;-84
2021/05/19 09:55:38;;;;;;;2.23;1.00;;;13.10;64.90;;;;;;5056688;28;20485;-84
2021/05/19 09:58:04;;;;;;;0.70;0.30;;;13.00;65.30;;;;;;5064238;28;20493;-84
2021/05/19 10:00:31;;;;;;;0.80;0.30;;;13.00;65.30;;;;;;5068561;28;20040;-84
2021/05/19 10:02:57;;;;;;;2.53;0.30;;;13.00;65.40;;;;;;5055383;28;20025;-83
2021/05/19 10:05:32;;;;;;;2.47;0.40;;;13.00;65.10;;;;;;5053485;28;20063;-84
2021/05/19 10:07:58;;;;;;;0.90;0.30;;;12.90;65.30;;;;;;5051899;28;20021;-84
2021/05/19 10:10:25;;;;;;;2.17;0.77;;;12.90;65.80;;;;;;5069585;28;20024;-84
2021/05/19 10:12:51;;;;;;;0.60;0.20;;;13.00;65.70;;;;;;5048987;28;20508;-83
2021/05/19 10:15:31;;;;;;;1.23;0.40;;;13.00;65.90;;;;;;5050750;28;20035;-83
2021/05/19 10:18:03;;;;;;;1.30;0.40;;;12.90;65.90;;;;;;5051968;28;20033;-83
2021/05/19 10:20:36;;;;;;;0.80;0.45;;;13.00;65.80;;;;;;5057128;28;20021;-83
2021/05/19 10:23:05;;;;;;;2.17;0.50;;;13.00;66.10;;;;;;5053173;28;20115;-84
2021/05/19 10:25:42;;;;;;;3.77;0.40;;;12.90;66.40;;;;;;5063734;28;20027;-84
2021/05/19 10:28:18;;;;;;;0.80;0.30;;;12.90;66.60;;;;;;5054448;28;20052;-84
2021/05/19 10:30:51;;;;;;;1.13;0.50;;;13.00;66.80;;;;;;5044290;28;20120;-84
2021/05/19 10:33:29;;;;;;;2.07;0.40;;;13.10;67.00;;;;;;5051568;28;20392;-84
2021/05/19 10:36:24;;;;;;;1.10;0.37;;;13.10;66.70;;;;;;5061237;28;20020;-83
2021/05/19 10:39:08;;;;;;;1.20;0.30;;;13.10;66.50;;;;;;5038557;28;20025;-83
2021/05/19 10:41:40;;;;;;;0.20;0.10;;;13.20;66.50;;;;;;5067324;28;20016;-83
2021/05/19 10:44:11;;;;;;;0.33;0.10;;;13.10;65.70;;;;;;5054216;28;20055;-84
2021/05/19 10:46:45;;;;;;;0.20;0.10;;;13.10;65.50;;;;;;5050862;28;20386;-83
2021/05/19 10:49:11;;;;;;;0.27;0.20;;;13.20;64.80;;;;;;5050188;28;20033;-84
2021/05/19 10:51:44;;;;;;;0.60;0.20;;;13.20;64.60;;;;;;5054819;28;20374;-84
2021/05/19 10:57:19;;;;;;;0.87;0.40;;;13.30;64.10;;;;;;5070451;28;20731;-84
2021/05/19 11:00:19;;;;;;;0.90;0.50;;;13.30;64.20;;;;;;5041227;28;20027;-84
2021/05/19 11:02:55;;;;;;;0.73;0.50;;;13.40;64.20;;;;;;5037453;28;21011;-83
2021/05/19 11:05:34;;;;;;;2.67;1.30;;;13.50;64.50;;;;;;5053090;28;20039;-84
2021/05/19 11:08:11;;;;;;;1.53;0.60;;;13.40;64.60;;;;;;5053837;28;20158;-82
2021/05/19 11:10:44;;;;;;;1.53;0.60;;;13.50;64.50;;;;;;5060805;28;20033;-83
2021/05/19 11:13:10;;;;;;;3.77;0.97;;;13.50;64.10;;;;;;5053204;28;20071;-82
2021/05/19 11:15:42;;;;;;;1.43;0.50;;;13.50;64.30;;;;;;5074283;28;20024;-82
2021/05/19 11:21:05;;;;;;;3.80;0.70;;;13.60;64.90;;;;;;5074916;28;20032;-82
2021/05/19 11:23:31;;;;;;;1.97;0.77;;;13.60;64.90;;;;;;5061030;28;20028;-82
2021/05/19 11:26:13;;;;;;;2.47;0.63;;;13.70;65.10;;;;;;5056361;28;20477;-82
2021/05/19 11:28:41;;;;;;;2.28;0.95;;;13.80;64.90;;;;;;5048985;28;20028;-82
2021/05/19 11:31:17;;;;;;;5.10;1.00;;;13.80;64.90;;;;;;5056892;28;20165;-82
2021/05/19 11:33:57;;;;;;;2.77;1.10;;;13.90;64.70;;;;;;5072914;28;20056;-82
2021/05/19 11:36:33;;;;;;;2.23;1.20;;;13.90;64.50;;;;;;5069674;28;20028;-82
2021/05/19 11:39:02;;;;;;;2.40;1.67;;;14.00;63.80;;;;;;5039063;28;20428;-82
2021/05/19 11:41:28;;;;;;;3.00;1.73;;;14.10;63.80;;;;;;5044476;28;20504;-83
2021/05/19 11:43:53;;;;;;;3.43;1.80;;;14.20;63.80;;;;;;5062010;28;20025;-83
2021/05/19 11:46:19;;;;;;;4.03;1.70;;;14.10;64.00;;;;;;5074137;28;20028;-82
2021/05/19 11:48:49;;;;;;;7.10;2.07;;;14.30;63.90;;;;;;5053997;28;20129;-82
2021/05/19 11:51:21;;;;;;;5.83;2.63;;;14.40;63.90;;;;;;5046797;28;20082;-83
2021/05/19 11:54:00;;;;;;;4.10;2.00;;;14.50;63.90;;;;;;5062819;28;20028;-82
2021/05/19 11:56:41;;;;;;;4.00;2.03;;;14.60;63.90;;;;;;5058069;28;20409;-81
2021/05/19 11:59:29;;;;;;;4.33;2.07;;;14.60;64.00;;;;;;5068724;28;20054;-82
2021/05/19 12:02:06;;;;;;;5.77;2.77;;;14.70;64.00;;;;;;5053329;28;20044;-83
2021/05/19 12:04:36;;;;;;;1.70;0.90;;;14.70;64.50;;;;;;5055899;28;20025;-82
2021/05/19 12:07:05;;;;;;;2.97;1.30;;;14.80;63.20;;;;;;5055004;28;20044;-83
2021/05/19 12:12:07;;;;;;;3.33;1.30;;;14.80;62.60;;;;;;5069088;28;20037;-82
2021/05/19 12:14:33;;;;;;;3.63;1.50;;;14.80;62.20;;;;;;5130053;23;20132;-75
2021/05/19 12:17:05;;;;;;;5.33;1.43;;;14.70;61.80;;;;;;5035603;28;20033;-83
2021/05/19 12:19:39;;;;;;;4.33;1.67;;;14.70;61.80;;;;;;5034591;28;20428;-82
2021/05/19 12:22:18;;;;;;;12.73;2.33;;;14.50;61.80;;;;;;5038176;28;20025;-82
2021/05/19 12:24:45;;;;;;;8.83;2.40;;;14.30;62.20;;;;;;5039629;28;20075;-82
2021/05/19 12:27:16;;;;;;;6.27;1.80;;;14.10;63.10;;;;;;5045895;28;20124;-81
2021/05/19 12:29:46;;;;;;;1.73;0.50;;;14.00;64.00;;;;;;5037301;28;20060;-81
2021/05/19 12:32:28;;;;;;;1.03;0.40;;;13.90;63.70;;;;;;5036867;28;20056;-82
2021/05/19 12:35:07;;;;;;;0.97;0.40;;;13.70;63.80;;;;;;5034975;28;20483;-81
2021/05/19 12:37:45;;;;;;;5.10;0.40;;;13.40;63.50;;;;;;5021130;28;20189;-82
2021/05/19 12:40:15;;;;;;;2.20;0.40;;;13.30;64.70;;;;;;5036783;28;20029;-82
2021/05/19 12:42:45;;;;;;;1.63;0.80;;;13.20;65.30;;;;;;5036463;28;20110;-81
2021/05/19 12:45:13;;;;;;;0.70;0.43;;;13.20;65.50;;;;;;5043474;28;20064;-82
2021/05/19 12:47:39;;;;;;;2.43;0.43;;;13.30;65.40;;;;;;5033600;28;20088;-82
2021/05/19 12:50:07;;;;;;;2.03;0.20;;;13.50;64.30;;;;;;5030776;28;20061;-82
2021/05/19 12:52:37;;;;;;;1.50;0.20;;;13.50;63.50;;;;;;5033744;28;20044;-82
2021/05/19 12:55:05;;;;;;;0.83;0.40;;;13.50;63.60;;;;;;5023710;28;20037;-82
2021/05/19 12:57:33;;;;;;;3.53;0.40;;;13.60;63.90;;;;;;5053381;28;20493;-82
2021/05/19 12:59:59;;;;;;;0.63;0.20;;;13.60;63.70;;;;;;5032685;28;20065;-83
2021/05/19 13:02:29;;;;;;;1.10;0.33;;;13.80;63.10;;;;;;5096120;23;20447;-81
2021/05/19 13:04:56;;;;;;;0.17;0.17;;;13.80;62.80;;;;;;5051614;28;20044;-81
2021/05/19 13:07:24;;;;;;;0.30;0.30;;;13.90;62.80;;;;;;5055991;28;20082;-81
2021/05/19 13:10:29;;;;;;;1.23;0.37;;;14.00;62.90;;;;;;5055366;28;20445;-81